Time;durP1;ratioP1;P1;durP2;ratioP2;P2;SDS_P1;SDS_P2;PMS_P1;PMS_P2;Temp;Humidity;BMP_temperature;BMP_pressure;BME280_temperature;BME280_humidity;BME280_pressure;Samples;Min_cycle;Max_cycle;Signal;HPM_P1;HPM_P2
2023/01/31 00:01:12;;;;;;;14.63;5.07;;;5.10;99.90;;;;;;5019192;28;20235;-72
2023/01/31 00:03:40;;;;;;;22.37;5.53;;;5.20;99.90;;;;;;5013847;28;20196;-72
2023/01/31 00:06:18;;;;;;;11.70;4.93;;;5.00;99.90;;;;;;5043626;28;20196;-72
2023/01/31 00:08:48;;;;;;;17.70;5.40;;;4.90;99.90;;;;;;5014991;28;20207;-72
2023/01/31 00:11:16;;;;;;;18.33;6.30;;;4.80;99.90;;;;;;5025481;28;20215;-72
2023/01/31 00:13:44;;;;;;;15.50;4.67;;;4.80;99.90;;;;;;5016719;28;20209;-72
2023/01/31 00:16:13;;;;;;;20.73;5.37;;;4.80;99.90;;;;;;5010333;28;20195;-72
2023/01/31 00:18:41;;;;;;;17.33;5.63;;;4.70;99.90;;;;;;5005847;28;20200;-72
2023/01/31 00:21:22;;;;;;;20.70;5.60;;;4.60;99.90;;;;;;5018861;28;20226;-72
2023/01/31 00:23:50;;;;;;;19.30;4.80;;;4.60;99.90;;;;;;5018510;28;20198;-72
2023/01/31 00:26:20;;;;;;;19.23;5.50;;;4.60;99.90;;;;;;5021037;28;20202;-72
2023/01/31 00:28:49;;;;;;;21.83;4.90;;;4.60;99.90;;;;;;5013705;28;20207;-72
2023/01/31 00:31:19;;;;;;;17.67;4.60;;;4.50;99.90;;;;;;5016588;28;20222;-72
2023/01/31 00:33:50;;;;;;;13.77;4.20;;;4.50;99.90;;;;;;5019364;28;20200;-72
2023/01/31 00:36:21;;;;;;;21.27;5.10;;;4.50;99.90;;;;;;5012135;28;20680;-72
2023/01/31 00:38:48;;;;;;;19.20;5.97;;;4.50;99.90;;;;;;5011813;28;20204;-72
2023/01/31 00:41:20;;;;;;;16.60;4.63;;;4.50;99.90;;;;;;5015966;28;20232;-72
2023/01/31 00:43:47;;;;;;;23.00;5.07;;;4.60;99.90;;;;;;5021965;28;20660;-72
2023/01/31 00:46:15;;;;;;;13.07;4.53;;;4.60;99.90;;;;;;5019279;28;20211;-72
2023/01/31 00:48:43;;;;;;;15.43;4.37;;;4.60;99.90;;;;;;5030825;28;20214;-72
2023/01/31 00:51:10;;;;;;;16.97;5.10;;;4.70;99.90;;;;;;5005994;28;20224;-72
2023/01/31 00:53:39;;;;;;;16.30;5.30;;;4.70;99.90;;;;;;5010914;28;20219;-72
2023/01/31 00:56:09;;;;;;;19.10;5.10;;;4.70;99.90;;;;;;5016703;28;20516;-72
2023/01/31 00:58:39;;;;;;;14.97;4.83;;;4.70;99.90;;;;;;5017159;28;20219;-72
2023/01/31 01:01:08;;;;;;;21.90;5.53;;;4.70;99.90;;;;;;5049600;28;20221;-72
2023/01/31 01:03:37;;;;;;;14.60;5.27;;;4.70;99.90;;;;;;5013648;28;20205;-72
2023/01/31 01:06:05;;;;;;;13.93;4.60;;;4.80;99.90;;;;;;5026245;28;20597;-72
2023/01/31 01:08:33;;;;;;;14.87;6.23;;;4.80;99.90;;;;;;5009242;28;20194;-72
2023/01/31 01:11:06;;;;;;;14.20;4.47;;;4.80;99.90;;;;;;5008949;28;20219;-72
2023/01/31 01:13:35;;;;;;;16.90;4.60;;;4.90;99.90;;;;;;5005290;28;20196;-72
2023/01/31 01:16:05;;;;;;;14.53;4.00;;;4.80;99.90;;;;;;5009611;28;20196;-72
2023/01/31 01:18:34;;;;;;;15.93;5.10;;;4.90;99.90;;;;;;5015085;28;20230;-72
2023/01/31 01:21:09;;;;;;;16.93;4.37;;;4.80;99.90;;;;;;5003984;28;20224;-72
2023/01/31 01:23:36;;;;;;;17.53;4.57;;;4.80;99.90;;;;;;5003753;28;20195;-73
2023/01/31 01:26:06;;;;;;;16.30;4.33;;;4.90;99.90;;;;;;5011689;28;20197;-72
2023/01/31 01:28:34;;;;;;;14.57;3.50;;;4.90;99.90;;;;;;5008652;28;20204;-72
2023/01/31 01:31:06;;;;;;;16.57;4.83;;;4.90;99.90;;;;;;5008121;28;20235;-72
2023/01/31 01:33:33;;;;;;;17.50;4.70;;;4.80;99.90;;;;;;5014866;28;20216;-72
2023/01/31 01:36:01;;;;;;;15.73;4.67;;;4.80;99.90;;;;;;5017206;28;20215;-72
2023/01/31 01:38:28;;;;;;;11.77;3.67;;;4.80;99.90;;;;;;5009176;28;20231;-72
2023/01/31 01:40:56;;;;;;;13.47;4.27;;;4.70;99.90;;;;;;5042531;28;20230;-72
2023/01/31 01:43:41;;;;;;;14.50;4.07;;;4.70;99.90;;;;;;5012887;28;20209;-72
2023/01/31 01:46:11;;;;;;;16.20;4.47;;;4.70;99.90;;;;;;5009194;28;20681;-72
2023/01/31 01:48:38;;;;;;;16.90;3.97;;;4.70;99.90;;;;;;5007507;28;20547;-72
2023/01/31 01:51:07;;;;;;;11.63;4.90;;;4.70;99.90;;;;;;5011556;28;20230;-73
2023/01/31 01:53:39;;;;;;;15.27;4.73;;;4.60;99.90;;;;;;5016864;28;20210;-72
2023/01/31 01:56:11;;;;;;;17.90;3.77;;;4.60;99.90;;;;;;5009650;28;20208;-72
2023/01/31 01:58:44;;;;;;;16.57;5.10;;;4.60;99.90;;;;;;5014037;28;20218;-73
2023/01/31 02:01:15;;;;;;;14.07;4.07;;;4.60;99.90;;;;;;5004187;28;20691;-72
2023/01/31 02:03:47;;;;;;;8.87;3.80;;;4.60;99.90;;;;;;5004641;28;20200;-72
2023/01/31 02:06:15;;;;;;;16.80;4.50;;;4.70;99.90;;;;;;5015767;28;20191;-72
2023/01/31 02:08:43;;;;;;;13.23;4.67;;;4.60;99.90;;;;;;5011395;28;20201;-72
2023/01/31 02:11:18;;;;;;;20.50;5.37;;;4.70;99.90;;;;;;5004963;28;20229;-73
2023/01/31 02:13:59;;;;;;;19.47;4.63;;;4.60;99.90;;;;;;5012150;28;20202;-72
2023/01/31 02:16:26;;;;;;;19.53;5.23;;;4.70;99.90;;;;;;5008062;28;20200;-72
2023/01/31 02:18:55;;;;;;;17.97;4.47;;;4.70;99.90;;;;;;5004591;28;20567;-72
2023/01/31 02:21:59;;;;;;;13.30;4.30;;;4.70;99.90;;;;;;5009769;28;20230;-72
2023/01/31 02:25:05;;;;;;;9.73;4.20;;;4.70;99.90;;;;;;5008557;28;20192;-72
2023/01/31 02:27:55;;;;;;;21.37;5.33;;;4.60;99.90;;;;;;5014769;28;20205;-72
2023/01/31 02:30:58;;;;;;;14.03;5.60;;;4.70;99.90;;;;;;5000655;28;20204;-72
2023/01/31 02:33:36;;;;;;;15.77;5.33;;;4.70;99.90;;;;;;5021190;28;20214;-72
2023/01/31 02:36:11;;;;;;;13.73;4.60;;;4.70;99.90;;;;;;5017353;28;20195;-72
2023/01/31 02:38:47;;;;;;;15.07;4.40;;;4.50;99.90;;;;;;5012907;28;20213;-72
2023/01/31 02:41:32;;;;;;;15.13;4.40;;;4.40;99.90;;;;;;5010317;28;21835;-72
2023/01/31 02:46:58;;;;;;;13.93;4.40;;;4.40;99.90;;;;;;5017422;28;20186;-72
2023/01/31 02:49:34;;;;;;;12.83;3.90;;;4.40;99.90;;;;;;5006825;28;20214;-72
2023/01/31 02:52:18;;;;;;;12.97;4.33;;;4.40;99.90;;;;;;4999721;28;20231;-72
2023/01/31 02:57:45;;;;;;;14.23;5.43;;;4.30;99.90;;;;;;5015127;28;20221;-72
2023/01/31 03:00:13;;;;;;;15.83;4.90;;;4.40;99.90;;;;;;5012838;28;20212;-72
2023/01/31 03:02:41;;;;;;;14.67;3.97;;;4.40;99.90;;;;;;5007447;28;20254;-72
2023/01/31 03:05:15;;;;;;;14.70;5.03;;;4.40;99.90;;;;;;5006070;28;20204;-73
2023/01/31 03:07:46;;;;;;;13.40;4.30;;;4.40;99.90;;;;;;5009592;28;20204;-72
2023/01/31 03:10:26;;;;;;;18.80;5.53;;;4.40;99.90;;;;;;5006635;28;20201;-72
2023/01/31 03:13:03;;;;;;;12.67;4.47;;;4.40;99.90;;;;;;5021458;28;20549;-72
2023/01/31 03:18:47;;;;;;;16.93;4.40;;;4.40;99.90;;;;;;5012424;28;20211;-72
2023/01/31 03:21:21;;;;;;;13.27;4.57;;;4.40;99.90;;;;;;5010826;28;20716;-72
2023/01/31 03:23:53;;;;;;;12.63;4.90;;;4.50;99.90;;;;;;5032381;28;20213;-72
2023/01/31 03:26:22;;;;;;;17.50;4.90;;;4.50;99.90;;;;;;5030604;28;20593;-72
2023/01/31 03:28:56;;;;;;;16.50;4.87;;;4.50;99.90;;;;;;5014018;28;20318;-72
2023/01/31 03:31:27;;;;;;;14.63;4.63;;;4.60;99.90;;;;;;5011749;28;20226;-72
2023/01/31 03:33:57;;;;;;;18.93;5.00;;;4.50;99.90;;;;;;5012889;28;20207;-73
2023/01/31 03:36:31;;;;;;;9.13;4.13;;;4.60;99.90;;;;;;5015173;28;20211;-72
2023/01/31 03:39:19;;;;;;;16.97;4.70;;;4.60;99.90;;;;;;5010705;28;20216;-72
2023/01/31 03:41:57;;;;;;;14.23;4.20;;;4.70;99.90;;;;;;5027847;28;20222;-72
2023/01/31 03:44:35;;;;;;;20.80;5.27;;;4.70;99.90;;;;;;5012966;28;20697;-72
2023/01/31 03:47:09;;;;;;;18.90;5.40;;;4.70;99.90;;;;;;5037553;28;20557;-72
2023/01/31 03:49:41;;;;;;;14.93;4.43;;;4.70;99.90;;;;;;5013176;28;20195;-72
2023/01/31 03:52:13;;;;;;;13.80;5.23;;;4.70;99.90;;;;;;5019721;28;20576;-72
2023/01/31 03:54:44;;;;;;;7.70;4.30;;;4.80;99.90;;;;;;5014438;28;20205;-72
2023/01/31 03:57:18;;;;;;;13.70;4.83;;;4.70;99.90;;;;;;5010003;28;20204;-72
2023/01/31 03:59:52;;;;;;;14.33;4.70;;;4.70;99.90;;;;;;5005895;28;20212;-73
2023/01/31 04:02:23;;;;;;;13.30;4.67;;;4.70;99.90;;;;;;5018673;28;20220;-72
2023/01/31 04:04:54;;;;;;;14.53;4.63;;;4.70;99.90;;;;;;5006785;28;20564;-72
2023/01/31 04:07:24;;;;;;;18.23;4.77;;;4.70;99.90;;;;;;5013411;28;20198;-72
2023/01/31 04:09:52;;;;;;;11.33;4.50;;;4.70;99.90;;;;;;5018290;28;20193;-72
2023/01/31 04:12:19;;;;;;;18.83;5.00;;;4.70;99.90;;;;;;5010024;28;20580;-72
2023/01/31 04:14:47;;;;;;;14.23;4.53;;;4.80;99.90;;;;;;5007826;28;20699;-72
2023/01/31 04:17:14;;;;;;;19.27;4.87;;;4.70;99.90;;;;;;5016331;28;20200;-72
2023/01/31 04:19:41;;;;;;;11.47;4.60;;;4.60;99.90;;;;;;5020009;28;20627;-72
2023/01/31 04:22:09;;;;;;;13.37;4.07;;;4.60;99.90;;;;;;5002330;28;20238;-72
2023/01/31 04:24:38;;;;;;;14.03;4.70;;;4.60;99.90;;;;;;5019169;28;20209;-72
2023/01/31 04:27:20;;;;;;;10.60;4.33;;;4.60;99.90;;;;;;5003255;28;20201;-72
2023/01/31 04:29:48;;;;;;;11.83;4.07;;;4.70;99.90;;;;;;5010159;28;20205;-72
2023/01/31 04:32:17;;;;;;;14.27;4.73;;;4.60;99.90;;;;;;5011156;28;20228;-72
2023/01/31 04:34:44;;;;;;;18.67;4.63;;;4.60;99.90;;;;;;5011561;28;20225;-72
2023/01/31 04:37:12;;;;;;;15.90;4.97;;;4.60;99.90;;;;;;5010010;28;20208;-72
2023/01/31 04:39:41;;;;;;;19.70;5.07;;;4.70;99.90;;;;;;5014079;28;20577;-72
2023/01/31 04:42:08;;;;;;;14.37;4.67;;;4.60;99.90;;;;;;5028501;28;20215;-73
2023/01/31 04:44:35;;;;;;;13.97;5.00;;;4.70;99.90;;;;;;5007416;28;20199;-72
2023/01/31 04:47:03;;;;;;;16.43;5.07;;;4.60;99.90;;;;;;5012364;28;20196;-72
2023/01/31 04:49:30;;;;;;;15.00;5.73;;;4.60;99.90;;;;;;5016555;28;20657;-72
2023/01/31 04:51:58;;;;;;;16.83;5.40;;;4.70;99.90;;;;;;5015467;28;20315;-73
2023/01/31 04:54:25;;;;;;;21.10;6.10;;;4.70;99.90;;;;;;5011790;28;20201;-72
2023/01/31 04:56:54;;;;;;;20.40;6.20;;;4.70;99.90;;;;;;5048900;28;20687;-72
2023/01/31 04:59:21;;;;;;;17.23;6.57;;;4.60;99.90;;;;;;5039003;28;20223;-74
2023/01/31 05:01:49;;;;;;;14.67;7.27;;;4.70;99.90;;;;;;5006161;28;20222;-72
2023/01/31 05:04:16;;;;;;;15.20;6.27;;;4.70;99.90;;;;;;5013396;28;20207;-73
2023/01/31 05:06:43;;;;;;;17.47;6.47;;;4.70;99.90;;;;;;5005712;28;20538;-72
2023/01/31 05:09:11;;;;;;;16.43;5.83;;;4.60;99.90;;;;;;5017326;28;20201;-73
2023/01/31 05:11:39;;;;;;;18.53;6.93;;;4.60;99.90;;;;;;5014321;28;20231;-72
2023/01/31 05:14:08;;;;;;;23.40;7.53;;;4.70;99.90;;;;;;5012382;28;20205;-73
2023/01/31 05:16:35;;;;;;;19.17;7.33;;;4.70;99.90;;;;;;5016394;28;20202;-72
2023/01/31 05:19:03;;;;;;;20.23;7.07;;;4.70;99.90;;;;;;5009153;28;20572;-73
2023/01/31 05:21:53;;;;;;;18.97;6.67;;;4.70;99.90;;;;;;5008668;28;20236;-73
2023/01/31 05:24:19;;;;;;;16.27;7.33;;;4.80;99.90;;;;;;5008272;28;20226;-73
2023/01/31 05:26:46;;;;;;;22.30;7.73;;;4.80;99.90;;;;;;5018829;28;20214;-72
2023/01/31 05:30:05;;;;;;;15.43;6.10;;;4.80;99.90;;;;;;5003201;28;20196;-72
2023/01/31 05:32:36;;;;;;;16.43;6.83;;;4.80;99.90;;;;;;5037411;28;20224;-73
2023/01/31 05:35:04;;;;;;;15.70;7.17;;;4.80;99.90;;;;;;5007859;28;20196;-73
2023/01/31 05:37:31;;;;;;;17.83;7.27;;;4.80;99.90;;;;;;5008454;28;20214;-73
2023/01/31 05:39:59;;;;;;;17.73;8.87;;;4.80;99.90;;;;;;4999800;28;20214;-73
2023/01/31 05:42:26;;;;;;;12.53;6.80;;;4.80;99.90;;;;;;5010381;28;20692;-73
2023/01/31 05:44:53;;;;;;;18.20;7.17;;;4.90;99.90;;;;;;5035935;28;20230;-72
2023/01/31 05:47:22;;;;;;;19.83;8.60;;;4.90;99.90;;;;;;5001810;28;20208;-72
2023/01/31 05:49:51;;;;;;;19.73;7.57;;;4.90;99.90;;;;;;5012645;28;20203;-72
2023/01/31 05:52:18;;;;;;;22.37;8.07;;;4.90;99.90;;;;;;5009316;28;20238;-72
2023/01/31 05:54:45;;;;;;;16.67;8.87;;;4.90;99.90;;;;;;5004860;28;20198;-72
2023/01/31 05:57:14;;;;;;;21.47;8.77;;;4.90;99.90;;;;;;5006254;28;20205;-72
2023/01/31 05:59:41;;;;;;;23.93;9.07;;;4.90;99.90;;;;;;5004617;28;20219;-72
2023/01/31 06:02:10;;;;;;;23.73;8.90;;;4.90;99.90;;;;;;5013603;28;20595;-72
2023/01/31 06:04:38;;;;;;;20.47;9.17;;;4.90;99.90;;;;;;5004677;28;20214;-73
2023/01/31 06:07:06;;;;;;;21.50;8.00;;;4.90;99.90;;;;;;5006892;28;20204;-72
2023/01/31 06:09:34;;;;;;;19.37;7.97;;;4.90;99.90;;;;;;5007822;28;20202;-73
2023/01/31 06:12:01;;;;;;;19.83;8.03;;;4.90;99.90;;;;;;5008090;28;20219;-72
2023/01/31 06:14:28;;;;;;;15.50;7.57;;;4.90;99.90;;;;;;5007366;28;20206;-73
2023/01/31 06:16:56;;;;;;;18.17;8.13;;;4.90;99.90;;;;;;5003523;28;20570;-72
2023/01/31 06:19:24;;;;;;;17.17;7.63;;;4.90;99.90;;;;;;5046076;28;20233;-72
2023/01/31 06:21:51;;;;;;;19.03;8.87;;;4.90;99.90;;;;;;5013810;28;20704;-72
2023/01/31 06:24:20;;;;;;;18.77;8.43;;;4.90;99.90;;;;;;5013313;28;20209;-72
2023/01/31 06:26:47;;;;;;;15.80;7.30;;;4.90;99.90;;;;;;5034450;28;20203;-72
2023/01/31 06:29:15;;;;;;;16.57;7.77;;;4.90;99.90;;;;;;5010148;28;20562;-72
2023/01/31 06:31:44;;;;;;;24.97;7.77;;;5.00;99.90;;;;;;5012372;28;20226;-72
2023/01/31 06:34:12;;;;;;;20.70;8.67;;;5.00;99.90;;;;;;5006459;28;20212;-72
2023/01/31 06:36:39;;;;;;;16.70;7.47;;;5.00;99.90;;;;;;5002437;28;20203;-72
2023/01/31 06:39:07;;;;;;;20.83;8.17;;;5.00;99.90;;;;;;5002883;28;20567;-72
2023/01/31 06:41:35;;;;;;;13.93;6.70;;;5.00;99.90;;;;;;5020697;28;20242;-72
2023/01/31 06:44:03;;;;;;;21.67;9.30;;;5.00;99.90;;;;;;5006912;28;20207;-72
2023/01/31 06:46:40;;;;;;;18.33;7.90;;;5.00;99.90;;;;;;5007768;28;20203;-72
2023/01/31 06:49:08;;;;;;;15.27;6.77;;;5.00;99.90;;;;;;5019174;28;20564;-74
2023/01/31 06:51:35;;;;;;;19.57;7.97;;;5.00;99.90;;;;;;5002212;28;20228;-73
2023/01/31 06:54:02;;;;;;;16.57;6.67;;;5.00;99.90;;;;;;4999377;28;20656;-72
2023/01/31 06:56:30;;;;;;;15.37;7.20;;;5.10;99.90;;;;;;5005092;28;20214;-72
2023/01/31 06:58:59;;;;;;;15.63;8.20;;;5.00;99.90;;;;;;5031680;28;20195;-72
2023/01/31 07:01:26;;;;;;;14.03;7.10;;;5.00;99.90;;;;;;5010054;28;20226;-75
2023/01/31 07:03:53;;;;;;;20.67;9.13;;;5.00;99.90;;;;;;5005195;28;20205;-75
2023/01/31 07:06:29;;;;;;;17.17;8.57;;;5.10;99.90;;;;;;5001457;28;20207;-73
2023/01/31 07:08:56;;;;;;;17.53;7.37;;;5.00;99.90;;;;;;5001412;28;20185;-74
2023/01/31 07:11:23;;;;;;;15.83;7.23;;;5.00;99.90;;;;;;5009658;28;20698;-73
2023/01/31 07:13:52;;;;;;;17.17;8.23;;;5.00;99.90;;;;;;5008677;28;20204;-74
2023/01/31 07:16:21;;;;;;;14.73;7.13;;;5.00;99.90;;;;;;5010754;28;20188;-74
2023/01/31 07:18:51;;;;;;;19.87;8.50;;;5.00;99.90;;;;;;5014540;28;20209;-74
2023/01/31 07:21:18;;;;;;;22.17;8.57;;;5.00;99.90;;;;;;5035564;28;20228;-74
2023/01/31 07:23:46;;;;;;;18.13;8.67;;;5.00;99.90;;;;;;5011859;28;20211;-74
2023/01/31 07:26:13;;;;;;;15.30;8.20;;;5.00;99.90;;;;;;5004080;28;20188;-74
2023/01/31 07:28:42;;;;;;;17.30;8.20;;;5.00;99.90;;;;;;5011836;28;20277;-74
2023/01/31 07:31:12;;;;;;;13.90;6.90;;;5.00;99.90;;;;;;5012599;28;20219;-74
2023/01/31 07:33:41;;;;;;;21.17;8.27;;;5.00;99.90;;;;;;5020849;28;20205;-74
2023/01/31 07:36:13;;;;;;;21.57;7.93;;;5.00;99.90;;;;;;5008708;28;20199;-74
2023/01/31 07:39:06;;;;;;;20.57;7.70;;;5.00;99.90;;;;;;5000572;28;20674;-73
2023/01/31 07:41:37;;;;;;;17.30;7.47;;;5.00;99.90;;;;;;5001809;28;20232;-74
2023/01/31 07:44:10;;;;;;;18.00;7.30;;;5.00;99.90;;;;;;5019309;28;20195;-74
2023/01/31 07:46:38;;;;;;;20.33;8.10;;;5.00;99.90;;;;;;5026451;28;20197;-74
2023/01/31 07:49:08;;;;;;;13.10;6.87;;;5.00;99.90;;;;;;5012616;28;20200;-74
2023/01/31 07:51:37;;;;;;;17.13;8.30;;;5.00;99.90;;;;;;5012926;28;20219;-74
2023/01/31 07:54:05;;;;;;;21.93;8.80;;;5.10;99.90;;;;;;5015128;28;20214;-74
2023/01/31 07:56:33;;;;;;;22.20;9.10;;;5.00;99.90;;;;;;5026295;28;20207;-75
2023/01/31 07:59:00;;;;;;;18.33;7.60;;;5.10;99.90;;;;;;5026824;28;20202;-75
2023/01/31 08:04:18;;;;;;;23.13;7.43;;;5.10;99.90;;;;;;5023473;28;20193;-74
2023/01/31 08:06:47;;;;;;;17.17;6.90;;;5.10;99.90;;;;;;5017651;28;20656;-75
2023/01/31 08:09:24;;;;;;;20.87;7.23;;;5.10;99.90;;;;;;5023424;28;20210;-74
2023/01/31 08:11:52;;;;;;;17.30;6.70;;;5.10;99.90;;;;;;5014229;28;20216;-75
2023/01/31 08:14:24;;;;;;;18.40;6.77;;;5.20;99.90;;;;;;5015897;28;20198;-74
2023/01/31 08:16:51;;;;;;;14.27;6.63;;;5.20;99.90;;;;;;5007719;28;20260;-76
2023/01/31 08:19:20;;;;;;;19.60;7.17;;;5.20;99.90;;;;;;4911203;28;20228;-75
2023/01/31 08:21:47;;;;;;;17.90;7.47;;;5.20;99.90;;;;;;4999074;28;20234;-74
2023/01/31 08:24:49;;;;;;;16.13;7.00;;;5.20;99.90;;;;;;4991933;28;20204;-74
2023/01/31 08:27:17;;;;;;;17.63;6.57;;;5.20;99.90;;;;;;5003155;28;20208;-74
2023/01/31 08:29:44;;;;;;;17.10;6.83;;;5.30;99.90;;;;;;4995473;28;20208;-74
2023/01/31 08:32:11;;;;;;;16.57;6.27;;;5.30;99.90;;;;;;4986891;28;20217;-74
2023/01/31 08:34:42;;;;;;;15.50;6.73;;;5.20;99.90;;;;;;5006901;28;20209;-74
2023/01/31 08:37:09;;;;;;;17.77;6.93;;;5.20;99.90;;;;;;4990135;28;20203;-74
2023/01/31 08:39:36;;;;;;;18.47;6.97;;;5.30;99.90;;;;;;5013636;28;20205;-74
2023/01/31 08:46:05;;;;;;;21.93;7.20;;;5.20;99.90;;;;;;5007430;28;20176;-74
2023/01/31 08:48:33;;;;;;;14.67;5.90;;;5.10;99.90;;;;;;5006596;28;20208;-74
2023/01/31 08:51:25;;;;;;;17.20;6.73;;;5.10;99.90;;;;;;4993894;28;20223;-74
2023/01/31 08:53:53;;;;;;;14.47;6.67;;;5.10;99.90;;;;;;5002438;28;20224;-74
2023/01/31 09:00:16;;;;;;;15.83;6.50;;;4.90;99.90;;;;;;5005402;28;20167;-74
2023/01/31 09:02:45;;;;;;;19.63;6.00;;;4.90;99.90;;;;;;5019713;28;20220;-74
2023/01/31 09:05:12;;;;;;;16.87;6.50;;;4.80;99.90;;;;;;5006355;28;20200;-74
2023/01/31 09:07:41;;;;;;;15.97;6.47;;;4.70;99.90;;;;;;4991805;28;20219;-74
2023/01/31 09:10:10;;;;;;;14.37;6.67;;;4.80;99.90;;;;;;4999890;28;20200;-74
2023/01/31 09:12:37;;;;;;;15.63;6.27;;;4.90;99.90;;;;;;5001164;28;20219;-74
2023/01/31 09:15:08;;;;;;;15.87;6.40;;;4.90;99.90;;;;;;4991353;28;20208;-74
2023/01/31 09:17:35;;;;;;;11.33;5.70;;;4.90;99.90;;;;;;4999458;28;20218;-74
2023/01/31 09:20:05;;;;;;;18.10;5.83;;;4.90;99.90;;;;;;4995795;28;20223;-74
2023/01/31 09:22:33;;;;;;;17.33;5.73;;;4.90;99.90;;;;;;5020080;28;20217;-74
2023/01/31 09:25:03;;;;;;;9.87;5.40;;;4.90;99.90;;;;;;4995318;28;20708;-73
2023/01/31 09:27:31;;;;;;;10.77;5.63;;;5.00;99.90;;;;;;4993833;28;20215;-73
2023/01/31 09:30:06;;;;;;;11.73;5.73;;;4.90;99.90;;;;;;4993603;28;20203;-73
2023/01/31 09:32:33;;;;;;;12.10;5.63;;;5.00;99.90;;;;;;4985872;28;20706;-74
2023/01/31 09:35:01;;;;;;;13.70;6.13;;;5.00;99.90;;;;;;4987789;28;20217;-73
2023/01/31 09:37:29;;;;;;;14.17;5.90;;;5.00;99.90;;;;;;4989582;28;20193;-73
2023/01/31 09:39:57;;;;;;;13.10;5.47;;;5.10;99.90;;;;;;4995751;28;20207;-73
2023/01/31 09:42:30;;;;;;;12.27;5.67;;;5.10;99.90;;;;;;4994856;28;20229;-75
2023/01/31 09:45:09;;;;;;;13.37;4.53;;;5.10;99.90;;;;;;5001619;28;20201;-73
2023/01/31 09:47:52;;;;;;;11.77;5.37;;;5.10;99.90;;;;;;4997794;28;20206;-73
2023/01/31 09:50:22;;;;;;;10.67;5.33;;;5.10;99.90;;;;;;4989243;28;20212;-74
2023/01/31 09:52:50;;;;;;;10.37;5.10;;;5.10;99.90;;;;;;4992590;28;20203;-74
2023/01/31 09:55:21;;;;;;;10.80;5.37;;;5.10;99.90;;;;;;4986906;28;20197;-74
2023/01/31 09:57:56;;;;;;;14.50;4.67;;;5.20;99.90;;;;;;4992330;28;20203;-74
2023/01/31 10:00:30;;;;;;;18.70;5.27;;;5.20;99.90;;;;;;4994255;28;20206;-75
2023/01/31 10:03:13;;;;;;;14.53;4.93;;;5.20;99.90;;;;;;4993119;28;20591;-74
2023/01/31 10:05:46;;;;;;;11.40;5.33;;;5.20;99.90;;;;;;4987381;28;20200;-73
2023/01/31 10:08:47;;;;;;;11.67;4.63;;;5.20;99.90;;;;;;5026883;28;20218;-73
2023/01/31 10:11:24;;;;;;;12.07;5.53;;;5.10;99.90;;;;;;4988439;28;20221;-74
2023/01/31 10:13:59;;;;;;;10.27;4.90;;;5.10;99.90;;;;;;4985197;28;20205;-73
2023/01/31 10:16:30;;;;;;;12.90;4.80;;;5.10;99.90;;;;;;4993878;28;20191;-73
2023/01/31 10:19:03;;;;;;;14.47;5.40;;;5.10;99.90;;;;;;4989297;28;20674;-74
2023/01/31 10:21:35;;;;;;;13.70;5.33;;;5.10;99.90;;;;;;4979155;28;20220;-73
2023/01/31 10:24:06;;;;;;;16.07;5.70;;;5.10;99.90;;;;;;5024881;28;20216;-74
2023/01/31 10:26:41;;;;;;;8.17;4.87;;;5.10;99.90;;;;;;4992069;28;20547;-74
2023/01/31 10:29:17;;;;;;;9.37;3.83;;;5.20;99.90;;;;;;5024643;28;20203;-73
2023/01/31 10:31:52;;;;;;;17.47;6.37;;;5.10;99.90;;;;;;4988319;28;20246;-74
2023/01/31 10:39:14;;;;;;;13.20;5.77;;;5.20;99.90;;;;;;4994497;28;20189;-75
2023/01/31 10:41:51;;;;;;;11.23;5.33;;;5.20;99.90;;;;;;4986403;28;20222;-75
2023/01/31 10:44:26;;;;;;;13.50;5.53;;;5.20;99.90;;;;;;5012350;28;20694;-75
2023/01/31 10:46:56;;;;;;;16.83;6.30;;;5.30;99.90;;;;;;4987685;28;20200;-75
2023/01/31 10:49:25;;;;;;;16.83;6.17;;;5.30;99.90;;;;;;4991141;28;20200;-75
2023/01/31 10:52:11;;;;;;;9.53;5.37;;;5.30;99.90;;;;;;4992274;28;20212;-74
2023/01/31 10:54:52;;;;;;;13.93;5.87;;;5.30;99.90;;;;;;4987643;28;20200;-75
2023/01/31 10:57:19;;;;;;;16.20;6.87;;;5.30;99.90;;;;;;5013998;28;20194;-75
2023/01/31 10:59:49;;;;;;;12.70;6.27;;;5.30;99.90;;;;;;4990103;28;20194;-75
2023/01/31 11:02:20;;;;;;;12.97;5.33;;;5.30;99.90;;;;;;4986324;28;20216;-77
2023/01/31 11:05:14;;;;;;;13.40;6.33;;;5.30;99.90;;;;;;5002476;28;20198;-76
2023/01/31 11:07:42;;;;;;;10.90;5.77;;;5.40;99.90;;;;;;4987617;28;20195;-75
2023/01/31 11:10:23;;;;;;;11.10;5.60;;;5.50;99.90;;;;;;4992351;28;20204;-76
2023/01/31 11:12:56;;;;;;;14.33;6.60;;;5.40;99.90;;;;;;5001014;28;20200;-75
2023/01/31 11:15:28;;;;;;;12.40;6.43;;;5.40;99.90;;;;;;4998145;28;20214;-75
2023/01/31 11:18:16;;;;;;;19.37;6.37;;;5.40;99.90;;;;;;5019290;28;20199;-76
2023/01/31 11:20:47;;;;;;;12.17;6.27;;;5.40;99.90;;;;;;4993979;28;20223;-75
2023/01/31 11:23:21;;;;;;;11.90;6.50;;;5.50;99.90;;;;;;4993342;28;20220;-75
2023/01/31 11:25:51;;;;;;;18.27;7.37;;;5.50;99.90;;;;;;4991473;28;20199;-75
2023/01/31 11:28:22;;;;;;;10.33;6.17;;;5.60;99.90;;;;;;5020050;28;20208;-75
2023/01/31 11:30:54;;;;;;;13.97;7.03;;;5.60;99.90;;;;;;4989504;28;20586;-76
2023/01/31 11:33:42;;;;;;;13.27;7.23;;;5.60;99.90;;;;;;5003478;28;20199;-75
2023/01/31 11:36:12;;;;;;;17.30;7.57;;;5.60;99.90;;;;;;4995294;28;20203;-75
2023/01/31 11:38:39;;;;;;;14.80;7.80;;;5.70;99.90;;;;;;5000525;28;20216;-75
2023/01/31 11:41:30;;;;;;;16.57;7.90;;;5.70;99.90;;;;;;4988917;28;20213;-76
2023/01/31 11:44:12;;;;;;;14.73;7.53;;;5.70;99.90;;;;;;4997569;28;20214;-76
2023/01/31 11:46:51;;;;;;;11.13;6.83;;;5.80;99.90;;;;;;4989172;28;20556;-75
2023/01/31 11:49:31;;;;;;;16.27;7.17;;;5.80;99.90;;;;;;4993824;28;20200;-76
2023/01/31 11:52:02;;;;;;;12.20;6.57;;;5.80;99.90;;;;;;5001125;28;20227;-76
2023/01/31 11:54:33;;;;;;;16.87;7.33;;;5.90;99.90;;;;;;4993679;28;20657;-76
2023/01/31 11:57:01;;;;;;;18.47;8.43;;;5.90;99.90;;;;;;4994780;28;20201;-76
2023/01/31 11:59:30;;;;;;;13.03;8.30;;;5.90;99.90;;;;;;4995126;28;20208;-76
2023/01/31 12:02:01;;;;;;;15.60;8.17;;;5.90;99.90;;;;;;4994307;28;20243;-76
2023/01/31 12:04:33;;;;;;;13.97;8.27;;;6.00;99.90;;;;;;4993295;28;20214;-75
2023/01/31 12:07:03;;;;;;;14.13;7.97;;;6.00;99.90;;;;;;4993228;28;20218;-75
2023/01/31 12:09:41;;;;;;;15.20;8.63;;;6.00;99.90;;;;;;4982875;28;20213;-76
2023/01/31 12:12:39;;;;;;;14.93;9.70;;;6.10;99.90;;;;;;5020348;28;20235;-76
2023/01/31 12:15:16;;;;;;;15.47;9.33;;;6.10;99.90;;;;;;4993398;28;20207;-76
2023/01/31 12:17:47;;;;;;;15.47;10.27;;;6.10;99.90;;;;;;4990573;28;20193;-76
2023/01/31 12:20:22;;;;;;;16.67;9.83;;;6.20;99.90;;;;;;4989676;28;20208;-75
2023/01/31 12:22:58;;;;;;;16.33;10.30;;;6.20;99.90;;;;;;4995711;28;20205;-74
2023/01/31 12:25:36;;;;;;;19.87;11.23;;;6.20;99.90;;;;;;4993299;28;20212;-74
2023/01/31 12:28:16;;;;;;;20.97;11.17;;;6.20;99.90;;;;;;4988690;28;20209;-74
2023/01/31 12:31:05;;;;;;;22.60;12.03;;;6.20;99.90;;;;;;4996022;28;20198;-74
2023/01/31 12:33:47;;;;;;;22.03;13.07;;;6.30;99.90;;;;;;4993279;28;20204;-75
2023/01/31 12:36:55;;;;;;;19.77;12.17;;;6.30;99.90;;;;;;5026393;28;20206;-75
2023/01/31 12:39:42;;;;;;;17.97;12.47;;;6.30;99.90;;;;;;5000738;28;20205;-75
2023/01/31 12:42:28;;;;;;;25.80;13.57;;;6.30;99.90;;;;;;4999942;28;20222;-75
2023/01/31 12:45:08;;;;;;;17.57;12.07;;;6.40;99.90;;;;;;5000348;28;20212;-75
2023/01/31 12:48:00;;;;;;;17.33;11.93;;;6.40;99.90;;;;;;5000818;28;20221;-75
2023/01/31 12:50:32;;;;;;;21.40;12.73;;;6.40;99.90;;;;;;4989337;28;20552;-75
2023/01/31 12:53:25;;;;;;;16.87;13.00;;;6.40;99.90;;;;;;5003725;28;20557;-75
2023/01/31 12:56:06;;;;;;;19.87;13.60;;;6.50;99.90;;;;;;4990629;28;20206;-75
2023/01/31 12:58:43;;;;;;;19.90;14.27;;;6.50;99.90;;;;;;4986531;28;20224;-75
2023/01/31 13:01:34;;;;;;;20.03;14.23;;;6.50;99.90;;;;;;4990407;28;20577;-75
2023/01/31 13:04:25;;;;;;;20.13;13.93;;;6.40;99.90;;;;;;4986671;28;20693;-75
2023/01/31 13:07:05;;;;;;;22.43;12.63;;;6.50;99.90;;;;;;4987488;28;20209;-75
2023/01/31 13:10:24;;;;;;;18.17;12.20;;;6.50;99.90;;;;;;5017188;28;20222;-75
2023/01/31 13:13:02;;;;;;;18.53;12.10;;;6.50;99.90;;;;;;5010089;28;20225;-75
2023/01/31 13:15:38;;;;;;;22.43;13.73;;;6.50;99.90;;;;;;5001110;28;20214;-75
2023/01/31 13:18:06;;;;;;;24.03;14.83;;;6.50;99.90;;;;;;5021150;28;20205;-75
2023/01/31 13:20:39;;;;;;;21.07;13.37;;;6.50;99.90;;;;;;4984388;28;20201;-75
2023/01/31 13:23:13;;;;;;;24.50;12.13;;;6.50;99.90;;;;;;4988989;28;20222;-75
2023/01/31 13:25:46;;;;;;;22.50;15.33;;;6.50;99.90;;;;;;4990451;28;20194;-75
2023/01/31 13:28:18;;;;;;;19.57;13.73;;;6.40;99.90;;;;;;4987938;28;20204;-74
2023/01/31 13:30:51;;;;;;;15.47;12.23;;;6.40;99.90;;;;;;5001875;28;20224;-75
2023/01/31 13:33:27;;;;;;;24.43;14.53;;;6.30;99.90;;;;;;4984771;28;20185;-75
2023/01/31 13:36:03;;;;;;;27.93;16.07;;;6.30;99.90;;;;;;4995278;28;20196;-75
2023/01/31 13:38:38;;;;;;;23.10;14.43;;;6.30;99.90;;;;;;5005850;28;20191;-74